sensor_id;sensor_type;location;lat;lon;timestamp;pressure;altitude;pressure_sealevel;temperature;humidity
57050;BME280;42935;50.966;16.992;2023-03-20T00:01:28;101503.61;;;6.87;99.98
57050;BME280;42935;50.966;16.992;2023-03-20T00:04:54;101510.16;;;6.90;100.00
57050;BME280;42935;50.966;16.992;2023-03-20T00:08:18;101507.14;;;6.89;100.00
57050;BME280;42935;50.966;16.992;2023-03-20T00:11:49;101494.84;;;6.85;100.00
57050;BME280;42935;50.966;16.992;2023-03-20T00:15:25;101502.59;;;7.04;100.00
57050;BME280;42935;50.966;16.992;2023-03-20T00:18:58;101502.88;;;6.97;100.00
57050;BME280;42935;50.966;16.992;2023-03-20T00:22:22;101496.16;;;6.89;100.00
57050;BME280;42935;50.966;16.992;2023-03-20T00:25:49;101505.95;;;6.93;100.00
57050;BME280;42935;50.966;16.992;2023-03-20T00:32:42;101489.93;;;7.22;100.00
57050;BME280;42935;50.966;16.992;2023-03-20T00:36:03;101493.11;;;7.33;100.00
57050;BME280;42935;50.966;16.992;2023-03-20T00:39:28;101503.27;;;7.60;99.94
57050;BME280;42935;50.966;16.992;2023-03-20T00:42:58;101501.77;;;7.79;95.70
57050;BME280;42935;50.966;16.992;2023-03-20T00:46:23;101481.02;;;7.70;95.19
57050;BME280;42935;50.966;16.992;2023-03-20T00:49:43;101473.23;;;7.65;95.32
57050;BME280;42935;50.966;16.992;2023-03-20T00:53:07;101497.65;;;7.78;95.89
57050;BME280;42935;50.966;16.992;2023-03-20T00:56:40;101500.09;;;7.78;96.43
57050;BME280;42935;50.966;16.992;2023-03-20T01:03:35;101489.48;;;7.74;95.96
57050;BME280;42935;50.966;16.992;2023-03-20T01:07:06;101497.26;;;7.79;96.24
57050;BME280;42935;50.966;16.992;2023-03-20T01:10:31;101499.49;;;7.77;96.45
57050;BME280;42935;50.966;16.992;2023-03-20T01:13:59;101487.78;;;7.68;97.56
57050;BME280;42935;50.966;16.992;2023-03-20T01:17:26;101486.09;;;7.65;97.68
57050;BME280;42935;50.966;16.992;2023-03-20T01:20:55;101496.92;;;7.69;98.79
57050;BME280;42935;50.966;16.992;2023-03-20T01:24:16;101496.65;;;7.73;99.60
57050;BME280;42935;50.966;16.992;2023-03-20T01:27:48;101498.45;;;7.80;100.00
57050;BME280;42935;50.966;16.992;2023-03-20T01:31:16;101498.22;;;7.82;100.00
57050;BME280;42935;50.966;16.992;2023-03-20T01:34:41;101503.06;;;7.79;100.00
57050;BME280;42935;50.966;16.992;2023-03-20T01:37:57;101503.61;;;7.68;100.00
57050;BME280;42935;50.966;16.992;2023-03-20T01:41:25;101493.75;;;7.61;100.00
57050;BME280;42935;50.966;16.992;2023-03-20T01:44:45;101504.48;;;7.68;100.00
57050;BME280;42935;50.966;16.992;2023-03-20T01:48:17;101492.52;;;7.68;100.00
57050;BME280;42935;50.966;16.992;2023-03-20T01:51:35;101495.93;;;7.67;100.00
57050;BME280;42935;50.966;16.992;2023-03-20T01:54:55;101505.51;;;7.69;100.00
57050;BME280;42935;50.966;16.992;2023-03-20T01:58:25;101496.84;;;7.71;100.00
57050;BME280;42935;50.966;16.992;2023-03-20T02:01:50;101508.28;;;7.78;100.00
57050;BME280;42935;50.966;16.992;2023-03-20T02:05:21;101486.99;;;7.54;100.00
57050;BME280;42935;50.966;16.992;2023-03-20T02:08:48;101510.59;;;7.59;100.00
57050;BME280;42935;50.966;16.992;2023-03-20T02:12:08;101494.87;;;7.41;100.00
57050;BME280;42935;50.966;16.992;2023-03-20T02:15:33;101504.59;;;7.46;100.00
57050;BME280;42935;50.966;16.992;2023-03-20T02:18:57;101505.38;;;7.46;100.00
57050;BME280;42935;50.966;16.992;2023-03-20T02:44:05;101494.30;;;7.52;100.00
57050;BME280;42935;50.966;16.992;2023-03-20T02:47:36;101500.70;;;7.57;100.00
57050;BME280;42935;50.966;16.992;2023-03-20T02:51:12;101498.03;;;7.43;100.00
57050;BME280;42935;50.966;16.992;2023-03-20T02:58:21;101493.81;;;7.40;100.00
57050;BME280;42935;50.966;16.992;2023-03-20T03:05:32;101501.15;;;7.48;100.00
57050;BME280;42935;50.966;16.992;2023-03-20T03:09:02;101500.02;;;7.47;100.00
57050;BME280;42935;50.966;16.992;2023-03-20T03:12:39;101490.53;;;7.34;100.00
57050;BME280;42935;50.966;16.992;2023-03-20T03:16:09;101500.48;;;7.49;100.00
57050;BME280;42935;50.966;16.992;2023-03-20T03:19:36;101489.24;;;7.41;100.00
57050;BME280;42935;50.966;16.992;2023-03-20T03:23:04;101482.97;;;7.41;100.00
57050;BME280;42935;50.966;16.992;2023-03-20T03:26:35;101494.95;;;7.50;100.00
57050;BME280;42935;50.966;16.992;2023-03-20T03:30:07;101495.15;;;7.41;100.00
57050;BME280;42935;50.966;16.992;2023-03-20T03:33:39;101491.57;;;7.27;100.00
57050;BME280;42935;50.966;16.992;2023-03-20T03:37:06;101495.81;;;7.30;100.00
57050;BME280;42935;50.966;16.992;2023-03-20T03:40:44;101483.52;;;7.18;100.00
57050;BME280;42935;50.966;16.992;2023-03-20T03:51:19;101491.30;;;7.38;100.00
57050;BME280;42935;50.966;16.992;2023-03-20T03:54:55;101484.06;;;7.32;100.00
57050;BME280;42935;50.966;16.992;2023-03-20T03:58:24;101493.47;;;7.43;100.00
57050;BME280;42935;50.966;16.992;2023-03-20T04:01:43;101487.20;;;7.28;100.00
57050;BME280;42935;50.966;16.992;2023-03-20T04:05:15;101478.44;;;7.11;100.00
57050;BME280;42935;50.966;16.992;2023-03-20T04:08:41;101504.68;;;7.25;100.00
57050;BME280;42935;50.966;16.992;2023-03-20T04:15:44;101486.88;;;7.26;100.00
57050;BME280;42935;50.966;16.992;2023-03-20T04:19:12;101510.49;;;7.48;100.00
57050;BME280;42935;50.966;16.992;2023-03-20T04:22:40;101508.72;;;7.48;100.00
57050;BME280;42935;50.966;16.992;2023-03-20T04:26:05;101496.02;;;7.42;100.00
57050;BME280;42935;50.966;16.992;2023-03-20T04:29:33;101503.22;;;7.47;100.00
57050;BME280;42935;50.966;16.992;2023-03-20T04:33:00;101496.91;;;7.53;100.00
57050;BME280;42935;50.966;16.992;2023-03-20T04:36:24;101489.02;;;7.48;100.00
57050;BME280;42935;50.966;16.992;2023-03-20T04:39:52;101501.34;;;7.55;100.00
57050;BME280;42935;50.966;16.992;2023-03-20T04:43:20;101492.33;;;7.55;100.00
57050;BME280;42935;50.966;16.992;2023-03-20T04:46:44;101493.34;;;7.57;100.00
57050;BME280;42935;50.966;16.992;2023-03-20T04:50:01;101507.39;;;7.64;100.00
57050;BME280;42935;50.966;16.992;2023-03-20T04:53:17;101492.30;;;7.56;100.00
57050;BME280;42935;50.966;16.992;2023-03-20T04:56:41;101502.68;;;7.64;100.00
57050;BME280;42935;50.966;16.992;2023-03-20T05:00:06;101510.95;;;7.73;100.00
57050;BME280;42935;50.966;16.992;2023-03-20T05:03:28;101512.07;;;7.69;100.00
57050;BME280;42935;50.966;16.992;2023-03-20T05:06:45;101504.50;;;7.61;100.00
57050;BME280;42935;50.966;16.992;2023-03-20T05:10:05;101511.74;;;7.80;100.00
57050;BME280;42935;50.966;16.992;2023-03-20T05:13:28;101504.48;;;7.76;100.00
57050;BME280;42935;50.966;16.992;2023-03-20T05:16:48;101514.09;;;7.90;100.00
57050;BME280;42935;50.966;16.992;2023-03-20T05:20:09;101505.73;;;7.87;100.00
57050;BME280;42935;50.966;16.992;2023-03-20T05:23:27;101490.08;;;7.82;100.00
57050;BME280;42935;50.966;16.992;2023-03-20T05:26:50;101516.70;;;7.75;100.00
57050;BME280;42935;50.966;16.992;2023-03-20T05:30:11;101499.58;;;7.54;100.00
57050;BME280;42935;50.966;16.992;2023-03-20T05:33:31;101507.92;;;7.73;100.00
57050;BME280;42935;50.966;16.992;2023-03-20T05:36:54;101527.97;;;7.88;100.00
57050;BME280;42935;50.966;16.992;2023-03-20T05:40:26;101534.41;;;7.78;100.00
57050;BME280;42935;50.966;16.992;2023-03-20T05:43:54;101533.21;;;7.85;100.00
57050;BME280;42935;50.966;16.992;2023-03-20T05:47:18;101519.75;;;7.98;100.00
57050;BME280;42935;50.966;16.992;2023-03-20T05:50:46;101519.34;;;8.30;100.00
57050;BME280;42935;50.966;16.992;2023-03-20T05:54:15;101525.10;;;8.36;100.00
57050;BME280;42935;50.966;16.992;2023-03-20T05:58:05;101523.50;;;8.55;100.00
57050;BME280;42935;50.966;16.992;2023-03-20T06:01:25;101534.89;;;8.66;100.00
57050;BME280;42935;50.966;16.992;2023-03-20T06:04:52;101523.32;;;8.78;100.00
57050;BME280;42935;50.966;16.992;2023-03-20T06:08:17;101533.57;;;8.88;100.00
57050;BME280;42935;50.966;16.992;2023-03-20T06:11:41;101542.68;;;8.69;100.00
57050;BME280;42935;50.966;16.992;2023-03-20T06:15:35;101532.16;;;8.45;100.00
57050;BME280;42935;50.966;16.992;2023-03-20T06:18:57;101542.44;;;8.45;100.00
57050;BME280;42935;50.966;16.992;2023-03-20T06:22:52;101544.04;;;8.52;100.00
57050;BME280;42935;50.966;16.992;2023-03-20T06:26:10;101545.10;;;8.91;100.00
57050;BME280;42935;50.966;16.992;2023-03-20T06:30:06;101553.46;;;9.01;100.00
57050;BME280;42935;50.966;16.992;2023-03-20T06:33:29;101555.44;;;9.01;100.00
57050;BME280;42935;50.966;16.992;2023-03-20T06:36:49;101558.37;;;8.89;100.00
57050;BME280;42935;50.966;16.992;2023-03-20T06:40:13;101540.95;;;8.86;100.00
57050;BME280;42935;50.966;16.992;2023-03-20T06:43:37;101561.24;;;8.99;100.00
57050;BME280;42935;50.966;16.992;2023-03-20T06:46:53;101550.42;;;9.02;100.00
57050;BME280;42935;50.966;16.992;2023-03-20T06:50:14;101564.55;;;9.16;100.00
57050;BME280;42935;50.966;16.992;2023-03-20T06:53:36;101563.80;;;9.09;100.00
57050;BME280;42935;50.966;16.992;2023-03-20T06:57:03;101566.22;;;9.07;100.00
57050;BME280;42935;50.966;16.992;2023-03-20T07:00:27;101548.39;;;8.92;100.00
57050;BME280;42935;50.966;16.992;2023-03-20T07:03:47;101543.42;;;8.98;100.00
57050;BME280;42935;50.966;16.992;2023-03-20T07:07:07;101562.73;;;8.96;100.00
57050;BME280;42935;50.966;16.992;2023-03-20T07:10:35;101565.00;;;8.92;100.00
57050;BME280;42935;50.966;16.992;2023-03-20T07:14:00;101565.22;;;8.80;100.00
57050;BME280;42935;50.966;16.992;2023-03-20T07:17:20;101569.46;;;8.93;100.00
57050;BME280;42935;50.966;16.992;2023-03-20T07:20:44;101573.11;;;8.95;100.00
57050;BME280;42935;50.966;16.992;2023-03-20T07:24:06;101567.16;;;9.17;100.00
57050;BME280;42935;50.966;16.992;2023-03-20T07:27:27;101571.12;;;9.26;100.00
57050;BME280;42935;50.966;16.992;2023-03-20T07:30:50;101567.66;;;9.28;100.00
57050;BME280;42935;50.966;16.992;2023-03-20T07:34:18;101578.91;;;9.20;100.00
57050;BME280;42935;50.966;16.992;2023-03-20T07:37:47;101574.57;;;9.30;100.00
57050;BME280;42935;50.966;16.992;2023-03-20T07:41:16;101560.63;;;9.27;100.00
57050;BME280;42935;50.966;16.992;2023-03-20T07:44:36;101567.80;;;9.49;100.00
57050;BME280;42935;50.966;16.992;2023-03-20T07:48:01;101569.42;;;9.65;100.00
57050;BME280;42935;50.966;16.992;2023-03-20T07:51:29;101579.26;;;9.68;100.00
57050;BME280;42935;50.966;16.992;2023-03-20T07:54:53;101581.09;;;9.58;100.00
57050;BME280;42935;50.966;16.992;2023-03-20T07:58:22;101584.01;;;9.67;100.00
57050;BME280;42935;50.966;16.992;2023-03-20T08:01:47;101582.69;;;9.68;100.00
57050;BME280;42935;50.966;16.992;2023-03-20T08:05:11;101581.88;;;9.75;100.00
57050;BME280;42935;50.966;16.992;2023-03-20T08:08:35;101578.11;;;9.65;100.00
57050;BME280;42935;50.966;16.992;2023-03-20T08:11:59;101575.62;;;9.70;100.00
57050;BME280;42935;50.966;16.992;2023-03-20T08:15:28;101558.34;;;9.62;100.00
57050;BME280;42935;50.966;16.992;2023-03-20T08:18:49;101584.21;;;9.55;100.00
57050;BME280;42935;50.966;16.992;2023-03-20T08:22:46;101587.74;;;9.30;100.00
57050;BME280;42935;50.966;16.992;2023-03-20T08:26:14;101591.81;;;9.16;100.00
57050;BME280;42935;50.966;16.992;2023-03-20T08:29:40;101593.32;;;9.20;100.00
57050;BME280;42935;50.966;16.992;2023-03-20T08:33:08;101573.75;;;9.08;100.00
57050;BME280;42935;50.966;16.992;2023-03-20T08:36:36;101597.92;;;9.27;100.00
57050;BME280;42935;50.966;16.992;2023-03-20T08:39:59;101599.80;;;9.19;100.00
57050;BME280;42935;50.966;16.992;2023-03-20T08:43:24;101595.90;;;9.14;100.00
57050;BME280;42935;50.966;16.992;2023-03-20T08:46:46;101597.63;;;9.04;100.00
57050;BME280;42935;50.966;16.992;2023-03-20T08:50:07;101608.04;;;9.10;100.00
57050;BME280;42935;50.966;16.992;2023-03-20T08:53:31;101613.13;;;9.11;100.00
57050;BME280;42935;50.966;16.992;2023-03-20T08:56:59;101605.20;;;9.19;100.00
57050;BME280;42935;50.966;16.992;2023-03-20T09:00:24;101618.22;;;9.27;100.00
57050;BME280;42935;50.966;16.992;2023-03-20T09:03:51;101614.63;;;9.34;100.00
57050;BME280;42935;50.966;16.992;2023-03-20T09:07:20;101616.48;;;9.40;100.00
57050;BME280;42935;50.966;16.992;2023-03-20T09:10:38;101613.87;;;9.51;100.00
57050;BME280;42935;50.966;16.992;2023-03-20T09:14:17;101614.36;;;9.57;100.00
57050;BME280;42935;50.966;16.992;2023-03-20T09:18:08;101613.23;;;9.54;100.00
57050;BME280;42935;50.966;16.992;2023-03-20T09:21:29;101591.61;;;9.49;100.00
57050;BME280;42935;50.966;16.992;2023-03-20T09:24:49;101606.77;;;9.56;100.00
57050;BME280;42935;50.966;16.992;2023-03-20T09:28:13;101611.82;;;9.23;100.00
57050;BME280;42935;50.966;16.992;2023-03-20T09:31:33;101618.36;;;9.37;100.00
57050;BME280;42935;50.966;16.992;2023-03-20T09:34:58;101613.59;;;9.75;100.00
57050;BME280;42935;50.966;16.992;2023-03-20T09:38:49;101597.48;;;9.78;100.00
57050;BME280;42935;50.966;16.992;2023-03-20T09:56:31;101595.99;;;10.74;100.00
57050;BME280;42935;50.966;16.992;2023-03-20T10:00:02;101580.92;;;10.69;100.00
57050;BME280;42935;50.966;16.992;2023-03-20T10:04:01;101590.59;;;11.04;100.00
57050;BME280;42935;50.966;16.992;2023-03-20T10:07:30;101562.59;;;11.41;100.00
57050;BME280;42935;50.966;16.992;2023-03-20T10:11:39;101589.13;;;11.40;100.00
57050;BME280;42935;50.966;16.992;2023-03-20T10:22:23;101581.25;;;11.74;100.00
57050;BME280;42935;50.966;16.992;2023-03-20T10:37:01;101563.77;;;12.64;100.00
57050;BME280;42935;50.966;16.992;2023-03-20T10:40:31;101568.52;;;12.09;100.00
57050;BME280;42935;50.966;16.992;2023-03-20T10:44:40;101570.19;;;12.30;100.00
57050;BME280;42935;50.966;16.992;2023-03-20T10:48:31;101563.29;;;12.62;100.00
57050;BME280;42935;50.966;16.992;2023-03-20T10:52:21;101551.52;;;12.26;100.00
57050;BME280;42935;50.966;16.992;2023-03-20T10:55:45;101550.41;;;12.48;100.00
57050;BME280;42935;50.966;16.992;2023-03-20T10:59:21;101554.31;;;12.30;100.00
57050;BME280;42935;50.966;16.992;2023-03-20T11:02:54;101548.13;;;12.27;100.00
57050;BME280;42935;50.966;16.992;2023-03-20T11:06:24;101554.38;;;12.29;100.00
57050;BME280;42935;50.966;16.992;2023-03-20T11:10:08;101540.37;;;12.46;100.00
57050;BME280;42935;50.966;16.992;2023-03-20T11:13:34;101538.99;;;13.20;100.00
57050;BME280;42935;50.966;16.992;2023-03-20T11:17:00;101544.17;;;13.35;100.00
57050;BME280;42935;50.966;16.992;2023-03-20T11:21:01;101537.77;;;12.95;100.00
57050;BME280;42935;50.966;16.992;2023-03-20T11:27:54;101537.92;;;13.06;100.00
57050;BME280;42935;50.966;16.992;2023-03-20T11:31:33;101528.93;;;13.73;100.00
57050;BME280;42935;50.966;16.992;2023-03-20T11:34:56;101535.92;;;13.63;100.00
57050;BME280;42935;50.966;16.992;2023-03-20T11:38:29;101535.23;;;13.97;100.00
57050;BME280;42935;50.966;16.992;2023-03-20T11:41:54;101515.99;;;14.40;97.12
57050;BME280;42935;50.966;16.992;2023-03-20T11:45:23;101536.00;;;14.38;92.83
57050;BME280;42935;50.966;16.992;2023-03-20T11:48:45;101472.05;;;13.66;91.33
57050;BME280;42935;50.966;16.992;2023-03-20T11:52:14;101530.96;;;13.81;89.74
57050;BME280;42935;50.966;16.992;2023-03-20T11:55:38;101517.12;;;13.92;91.36
57050;BME280;42935;50.966;16.992;2023-03-20T12:02:40;101519.18;;;13.78;89.04
57050;BME280;42935;50.966;16.992;2023-03-20T12:06:14;101517.14;;;13.85;89.40
57050;BME280;42935;50.966;16.992;2023-03-20T12:09:47;101509.96;;;13.84;91.34
57050;BME280;42935;50.966;16.992;2023-03-20T12:13:15;101499.13;;;13.58;94.51
57050;BME280;42935;50.966;16.992;2023-03-20T12:16:36;101497.93;;;13.52;95.11
57050;BME280;42935;50.966;16.992;2023-03-20T12:20:09;101504.83;;;13.76;99.86
57050;BME280;42935;50.966;16.992;2023-03-20T12:38:31;101489.52;;;14.44;92.75
57050;BME280;42935;50.966;16.992;2023-03-20T12:45:40;101479.87;;;14.08;89.43
57050;BME280;42935;50.966;16.992;2023-03-20T12:49:11;101464.36;;;13.99;91.11
57050;BME280;42935;50.966;16.992;2023-03-20T12:52:46;101410.60;;;13.35;91.99
57050;BME280;42935;50.966;16.992;2023-03-20T13:07:03;101449.24;;;14.17;88.12
57050;BME280;42935;50.966;16.992;2023-03-20T13:10:41;101448.21;;;15.06;87.35
57050;BME280;42935;50.966;16.992;2023-03-20T13:14:21;101438.45;;;14.87;83.63
57050;BME280;42935;50.966;16.992;2023-03-20T13:29:07;101414.30;;;16.20;72.19
57050;BME280;42935;50.966;16.992;2023-03-20T13:39:53;101412.83;;;16.06;73.01
57050;BME280;42935;50.966;16.992;2023-03-20T13:50:36;101431.65;;;14.90;79.62
57050;BME280;42935;50.966;16.992;2023-03-20T13:54:05;101419.39;;;15.79;77.47
57050;BME280;42935;50.966;16.992;2023-03-20T14:01:20;101429.88;;;15.81;74.11
57050;BME280;42935;50.966;16.992;2023-03-20T14:04:42;101418.02;;;15.85;72.58
57050;BME280;42935;50.966;16.992;2023-03-20T14:07:59;101421.91;;;16.15;73.77
57050;BME280;42935;50.966;16.992;2023-03-20T14:11:29;101422.59;;;16.14;70.73
57050;BME280;42935;50.966;16.992;2023-03-20T14:15:35;101411.37;;;15.73;69.44
57050;BME280;42935;50.966;16.992;2023-03-20T14:19:20;101414.14;;;15.20;72.44
57050;BME280;42935;50.966;16.992;2023-03-20T14:22:37;101427.18;;;14.67;76.46
57050;BME280;42935;50.966;16.992;2023-03-20T14:26:00;101440.73;;;14.19;85.40
57050;BME280;42935;50.966;16.992;2023-03-20T14:37:23;101465.33;;;12.12;100.00
57050;BME280;42935;50.966;16.992;2023-03-20T14:40:32;101467.11;;;11.69;100.00
57050;BME280;42935;50.966;16.992;2023-03-20T14:44:07;101472.66;;;11.60;100.00
57050;BME280;42935;50.966;16.992;2023-03-20T14:54:29;101460.40;;;11.93;100.00
57050;BME280;42935;50.966;16.992;2023-03-20T14:57:46;101456.66;;;11.77;100.00
57050;BME280;42935;50.966;16.992;2023-03-20T15:01:23;101464.23;;;12.12;100.00
57050;BME280;42935;50.966;16.992;2023-03-20T15:04:40;101465.29;;;12.00;100.00
57050;BME280;42935;50.966;16.992;2023-03-20T15:08:07;101455.12;;;11.87;100.00
57050;BME280;42935;50.966;16.992;2023-03-20T15:11:38;101447.67;;;11.70;100.00
57050;BME280;42935;50.966;16.992;2023-03-20T15:15:29;101456.30;;;11.72;100.00
57050;BME280;42935;50.966;16.992;2023-03-20T15:18:55;101445.74;;;11.64;100.00
57050;BME280;42935;50.966;16.992;2023-03-20T15:22:17;101460.10;;;11.60;100.00
57050;BME280;42935;50.966;16.992;2023-03-20T15:25:45;101462.14;;;11.47;100.00
57050;BME280;42935;50.966;16.992;2023-03-20T15:29:05;101458.26;;;11.39;100.00
57050;BME280;42935;50.966;16.992;2023-03-20T15:32:28;101472.42;;;11.44;100.00
57050;BME280;42935;50.966;16.992;2023-03-20T15:35:49;101475.23;;;11.46;100.00
57050;BME280;42935;50.966;16.992;2023-03-20T15:39:21;101473.45;;;11.41;100.00
57050;BME280;42935;50.966;16.992;2023-03-20T15:42:41;101464.09;;;11.24;100.00
57050;BME280;42935;50.966;16.992;2023-03-20T15:46:07;101465.23;;;11.35;100.00
57050;BME280;42935;50.966;16.992;2023-03-20T15:50:01;101485.54;;;11.21;100.00
57050;BME280;42935;50.966;16.992;2023-03-20T15:53:32;101490.48;;;11.20;100.00
57050;BME280;42935;50.966;16.992;2023-03-20T15:56:57;101499.66;;;11.19;100.00
57050;BME280;42935;50.966;16.992;2023-03-20T16:00:32;101501.17;;;11.22;100.00
57050;BME280;42935;50.966;16.992;2023-03-20T16:03:50;101501.77;;;10.95;100.00
57050;BME280;42935;50.966;16.992;2023-03-20T16:07:42;101497.55;;;10.78;100.00
57050;BME280;42935;50.966;16.992;2023-03-20T16:11:05;101503.20;;;10.78;100.00
57050;BME280;42935;50.966;16.992;2023-03-20T16:14:35;101509.83;;;10.71;100.00
57050;BME280;42935;50.966;16.992;2023-03-20T16:18:29;101516.69;;;10.68;100.00
57050;BME280;42935;50.966;16.992;2023-03-20T16:21:54;101516.55;;;10.57;100.00
57050;BME280;42935;50.966;16.992;2023-03-20T16:25:16;101512.13;;;10.38;100.00
57050;BME280;42935;50.966;16.992;2023-03-20T16:28:36;101520.50;;;10.41;100.00
57050;BME280;42935;50.966;16.992;2023-03-20T16:32:02;101512.84;;;10.30;100.00
57050;BME280;42935;50.966;16.992;2023-03-20T16:35:25;101505.79;;;10.21;100.00
57050;BME280;42935;50.966;16.992;2023-03-20T16:42:25;101534.54;;;10.25;100.00
57050;BME280;42935;50.966;16.992;2023-03-20T16:45:53;101523.38;;;10.25;100.00
57050;BME280;42935;50.966;16.992;2023-03-20T16:52:57;101528.02;;;10.35;100.00
57050;BME280;42935;50.966;16.992;2023-03-20T16:56:28;101519.94;;;10.29;100.00
57050;BME280;42935;50.966;16.992;2023-03-20T16:59:50;101511.94;;;10.25;100.00
57050;BME280;42935;50.966;16.992;2023-03-20T17:03:19;101514.30;;;10.29;100.00
57050;BME280;42935;50.966;16.992;2023-03-20T17:06:49;101534.71;;;10.29;100.00
57050;BME280;42935;50.966;16.992;2023-03-20T17:13:41;101529.97;;;10.23;100.00
57050;BME280;42935;50.966;16.992;2023-03-20T17:17:11;101534.78;;;10.08;100.00
57050;BME280;42935;50.966;16.992;2023-03-20T17:20:35;101547.92;;;10.09;100.00
57050;BME280;42935;50.966;16.992;2023-03-20T17:24:00;101549.21;;;10.11;100.00
57050;BME280;42935;50.966;16.992;2023-03-20T17:27:26;101551.60;;;10.06;100.00
57050;BME280;42935;50.966;16.992;2023-03-20T17:30:45;101548.86;;;10.04;100.00
57050;BME280;42935;50.966;16.992;2023-03-20T17:34:12;101554.40;;;10.10;100.00
57050;BME280;42935;50.966;16.992;2023-03-20T17:37:34;101556.82;;;10.12;100.00
57050;BME280;42935;50.966;16.992;2023-03-20T17:40:55;101558.20;;;10.15;100.00
57050;BME280;42935;50.966;16.992;2023-03-20T17:44:18;101550.31;;;10.08;100.00
57050;BME280;42935;50.966;16.992;2023-03-20T17:47:42;101556.45;;;9.97;100.00
57050;BME280;42935;50.966;16.992;2023-03-20T17:51:08;101559.31;;;9.91;100.00
57050;BME280;42935;50.966;16.992;2023-03-20T17:54:37;101552.90;;;9.72;100.00
57050;BME280;42935;50.966;16.992;2023-03-20T17:58:03;101555.99;;;9.80;100.00
57050;BME280;42935;50.966;16.992;2023-03-20T18:01:19;101568.89;;;9.69;100.00
57050;BME280;42935;50.966;16.992;2023-03-20T18:04:40;101561.98;;;9.55;100.00
57050;BME280;42935;50.966;16.992;2023-03-20T18:11:34;101579.77;;;9.70;100.00
57050;BME280;42935;50.966;16.992;2023-03-20T18:14:54;101580.20;;;9.63;100.00
57050;BME280;42935;50.966;16.992;2023-03-20T18:18:13;101572.56;;;9.49;100.00
57050;BME280;42935;50.966;16.992;2023-03-20T18:21:32;101562.02;;;9.40;100.00
57050;BME280;42935;50.966;16.992;2023-03-20T18:24:51;101568.95;;;9.45;100.00
57050;BME280;42935;50.966;16.992;2023-03-20T18:28:14;101573.98;;;9.58;100.00
57050;BME280;42935;50.966;16.992;2023-03-20T18:31:44;101582.79;;;9.64;100.00
57050;BME280;42935;50.966;16.992;2023-03-20T18:35:08;101571.91;;;9.65;100.00
57050;BME280;42935;50.966;16.992;2023-03-20T18:38:29;101572.33;;;9.64;100.00
57050;BME280;42935;50.966;16.992;2023-03-20T18:41:54;101585.47;;;9.68;100.00
57050;BME280;42935;50.966;16.992;2023-03-20T18:45:10;101580.24;;;9.64;100.00
57050;BME280;42935;50.966;16.992;2023-03-20T18:48:30;101573.22;;;9.75;100.00
57050;BME280;42935;50.966;16.992;2023-03-20T18:51:57;101571.71;;;9.80;100.00
57050;BME280;42935;50.966;16.992;2023-03-20T18:55:20;101561.69;;;9.61;100.00
57050;BME280;42935;50.966;16.992;2023-03-20T18:58:39;101571.58;;;9.56;100.00
57050;BME280;42935;50.966;16.992;2023-03-20T19:01:59;101573.36;;;9.42;100.00
57050;BME280;42935;50.966;16.992;2023-03-20T19:05:20;101572.94;;;9.16;100.00
57050;BME280;42935;50.966;16.992;2023-03-20T19:08:38;101574.09;;;8.98;100.00
57050;BME280;42935;50.966;16.992;2023-03-20T19:11:57;101561.60;;;8.90;100.00
57050;BME280;42935;50.966;16.992;2023-03-20T19:15:14;101578.64;;;9.13;100.00
57050;BME280;42935;50.966;16.992;2023-03-20T19:18:31;101579.48;;;9.08;100.00
57050;BME280;42935;50.966;16.992;2023-03-20T19:21:50;101579.26;;;9.00;100.00
57050;BME280;42935;50.966;16.992;2023-03-20T19:25:11;101568.81;;;8.86;100.00
57050;BME280;42935;50.966;16.992;2023-03-20T19:28:29;101564.19;;;8.81;100.00
57050;BME280;42935;50.966;16.992;2023-03-20T19:31:50;101579.86;;;8.77;100.00
57050;BME280;42935;50.966;16.992;2023-03-20T19:35:14;101579.59;;;8.79;100.00
57050;BME280;42935;50.966;16.992;2023-03-20T19:38:34;101576.02;;;8.73;100.00
57050;BME280;42935;50.966;16.992;2023-03-20T19:41:59;101581.17;;;8.81;100.00
57050;BME280;42935;50.966;16.992;2023-03-20T19:45:34;101577.54;;;8.84;100.00
57050;BME280;42935;50.966;16.992;2023-03-20T19:49:01;101575.79;;;8.83;100.00
57050;BME280;42935;50.966;16.992;2023-03-20T19:52:32;101555.19;;;8.66;100.00
57050;BME280;42935;50.966;16.992;2023-03-20T19:55:58;101589.20;;;8.84;100.00
57050;BME280;42935;50.966;16.992;2023-03-20T19:59:18;101579.09;;;8.76;100.00
57050;BME280;42935;50.966;16.992;2023-03-20T20:02:42;101590.08;;;8.87;100.00
57050;BME280;42935;50.966;16.992;2023-03-20T20:06:08;101593.03;;;8.87;100.00
57050;BME280;42935;50.966;16.992;2023-03-20T20:09:33;101592.30;;;8.84;100.00
57050;BME280;42935;50.966;16.992;2023-03-20T20:12:56;101589.58;;;8.87;100.00
57050;BME280;42935;50.966;16.992;2023-03-20T20:16:18;101592.68;;;8.85;100.00
57050;BME280;42935;50.966;16.992;2023-03-20T20:19:38;101596.66;;;8.92;100.00
57050;BME280;42935;50.966;16.992;2023-03-20T20:22:58;101586.23;;;8.80;100.00
57050;BME280;42935;50.966;16.992;2023-03-20T20:26:18;101594.96;;;8.80;100.00
57050;BME280;42935;50.966;16.992;2023-03-20T20:29:34;101597.43;;;8.86;100.00
57050;BME280;42935;50.966;16.992;2023-03-20T20:32:58;101586.13;;;8.81;100.00
57050;BME280;42935;50.966;16.992;2023-03-20T20:36:19;101576.30;;;8.70;100.00
57050;BME280;42935;50.966;16.992;2023-03-20T20:39:43;101595.72;;;8.77;100.00